Carbon Hill, Ohio
Current Conditions -  °F | °C
As of 1:10 PM on Sunday 25 Jan 2015 (Local Time) from KUNI Reporting Station
Overcast Overcast  
Wind Chill: 38°   Ceiling: 7000
Heat Index: 38°   Visibility: 10mi
Dew Point: 32°   Wind: 3mph
Humidity: 80%   Direction: 90°E
Pressure: 29.75"   Gusts: NA
Location:  39.5°N, 82.24°W
Report Text: KUNI 251810Z AUTO 09003KT 10SM SCT040 BKN070 OVC080 03/00 A2975 RMK AO2 T00320000
Loading
Personal Weather Stations






























Interactive Weather Map New forecast layout! Learn more

10-Day Weather Forecast

Advertisements
Track Severe Weather on mobile